Go Pro

AbbVie (ABBV) Institutional Ownership

AbbVie logo
$257.17 -3.04 (-1.17%)
As of 12:32 PM Eastern
This is a fair market value price provided by Massive. Learn more.

Institutional Ownership Changes (13F Filings) for AbbVie (NYSE:ABBV)

Current
Institutional Ownership
Percentage
70.23%
Number of
Institutional Buyers
(last 12 months)
2819
Total
Institutional Inflows
(last 12 months)
$219.03B
Number of
Institutional Sellers
(last 12 months)
2150
Total
Institutional Outflows
(last 12 months)
$15.94B
Get ABBV Insider Trade Alerts

Want to know when executives and insiders are buying or selling AbbVie stock? Sign up for InsiderTrades.com's daily newsletter to get the latest insider transactions delivered to your inbox daily.

SMS is currently available in Australia, Belgium, Canada, France, Germany, Ireland, Italy, New Zealand, the Netherlands, Singapore, South Africa, Spain, Switzerland, the United Kingdom, and the United States. By entering your phone number and clicking the sign-up button, you agree to receive periodic text messages from MarketBeat at the phone number you submitted, including texts that may be sent using an automatic telephone dialing system. Message and data rates may apply. Message frequency will vary. Messages will consist of stock alerts, news stories, and partner advertisements/offers. Consent is not a condition of the purchase of any goods or services. Text HELP for help/customer support. Unsubscribe at any time by replying "STOP" to any text message that you receive from MarketBeat or by visiting our mailing preferences page. Read our full terms of service and privacy policy.
Skip Chart & View Institutional Buying and Selling Data

ABBV Institutional Buying and Selling by Quarter

AbbVie Major Shareholders & Ownership History

Reporting DateMajor Shareholder NameShares HeldMarket Value% of PortfolioQuarterly Change in SharesOwnership in CompanyDetails
9/3/2026 Anchor Capital Advisors LLC60,716$15.28M0.3%-2.9%0.003%
9/2/2026 MLG Wealth Management DBA Pine Grove Financial Group1,936$482K0.0%-10.0%0.000%
9/2/2026 Kinetic Wealth Investment Advisors LLC1,184$298K0.1%N/A0.000%
9/2/2026 Range Advisory LLC5,721$1.44M0.2%+88.9%0.000%
9/2/2026 Capital & Planning LLC19,416$4.89M2.5%+21.5%0.001%
9/2/2026 Brown Lisle Cummings Inc.28,996$7.30M1.6%+0.5%0.002%
9/1/2026 Parrish Capital LLC6,690$1.68M1.3%-14.9%0.000%
8/28/2026 Cornerstone Financial Management LLC393$99K0.1%+34.6%0.000%
8/27/2026 Corient Private Wealth LP2,063,716$519.34M0.7%-6.4%0.117%
8/27/2026 Tucker Asset Management LLC1,490$375K0.1%+3.8%0.000%
8/26/2026 HORAN Wealth LLC25,603$6.44M0.8%+2.1%0.001%
8/26/2026 Principia Wealth Advisory LLC157$40K0.0%+38.9%0.000%
8/26/2026 Amundi10,039,289$2.53B0.6%-6.2%0.568%
8/26/2026 Wellington Grp LLC1,507$379K0.1%-6.8%0.000%
8/25/2026 Advus Financial Partners LLC4,517$1.14M0.3%+4.7%0.000%
8/25/2026 Tobias Financial Advisors Inc.1,114$280K0.0%-4.0%0.000%
8/25/2026 Groupe la Francaise303,838$76.48M0.9%+57.1%0.017%
8/25/2026 VIRGINIA RETIREMENT SYSTEMS ET Al267,461$67.30M0.4%N/A0.015%
8/25/2026 Financial Insights Inc.2,083$524K0.1%+2.2%0.000%
8/24/2026 Carlson Financial Inc.6,770$1.70M0.9%-1.3%0.000%
8/24/2026 CYBER HORNET ETFs LLC4,814$1.21M0.4%-0.9%0.000%
8/24/2026 California State Teachers Retirement System679,435,549$170.97B0.5%+25,250.3%38.456%
8/23/2026 Tanager Wealth Management LLP4,146$1.04M0.1%+5.3%0.000%
8/23/2026 DMC Group LLC5,543$1.40M1.0%-16.4%0.000%
8/23/2026 VELA Investment Management LLC2,438$613K0.1%+67.7%0.000%
8/23/2026 Washington Trust Advisors Inc.15,278$3.85M0.3%-6.7%0.001%
8/23/2026 Ameritas Advisory Services LLC32,773$8.25M0.2%+90.7%0.002%
8/23/2026 Guardian Wealth Advisors LLC NC11,906$3.00M0.2%+0.4%0.001%
8/23/2026 Henrickson Nauta Wealth Advisors Inc.1,491$375K0.1%+60.8%0.000%
8/23/2026 Wedmont Private Capital43,731$10.85M0.3%+1.2%0.002%
8/23/2026 Kintra Wealth LLC20,908$5.24M0.3%+3.1%0.001%
8/23/2026 Aspire Capital Advisors LLC1,227$309K0.1%+22.2%0.000%
8/23/2026 Endeavor Private Wealth Inc.2,443$615K0.1%+18.0%0.000%
8/23/2026 POM Investment Strategies LLC1,492$376K0.4%+1,454.2%0.000%
8/23/2026 Bayshore Asset Management LLC1,186$298K0.1%N/A0.000%
8/23/2026 Sovereign Investment Advisors LLC2,760$695K0.1%+42.3%0.000%
8/23/2026 Yarger Wealth Strategies LLC4,106$1.02M0.4%+10.0%0.000%
8/23/2026 Operose Advisors LLC4,615$1.16M0.2%-4.4%0.000%
8/23/2026 Guardian Wealth Management Inc.29,040$7.31M3.6%+2.2%0.002%
8/23/2026 HB Wealth Management LLC142,911$35.96M0.2%+1.3%0.008%
American retirees will miss THIS. Big Banks just moved in. (Ad)

Central banks spent nearly $130 billion on physical gold last year, on top of $145 billion the year before. Q1 2026 purchases rose another $3 billion, up 3% year over year. JPMorgan and Goldman Sachs project gold climbing toward $6,000 an ounce by year end. Cedar Gold Group built a free Wealth Protection Playbook showing how to move part of a 401(k), IRA, or TSP into physical gold, tax deferred and penalty free.tc pixel

Download the free Wealth Protection Playbook and see how it works today.
8/23/2026 Global Wealth Strategies & Associates1,329$334K0.1%-3.1%0.000%
8/23/2026 Nilsine Partners LLC10,103$2.54M0.2%+5.4%0.001%
8/23/2026 Saudi Central Bank123,814$31.16M0.4%+89.8%0.007%
8/23/2026 Fortitude Advisory Group L.L.C.5,707$1.44M0.5%+10.0%0.000%
8/23/2026 Angeles Wealth Management LLC23,439$5.90M0.2%+12.8%0.001%
8/23/2026 Azimuth Capital Investment Management LLC101,361$25.51M0.9%-0.5%0.006%
8/23/2026 Unique Wealth LLC3,312$833K0.1%+10.1%0.000%
8/23/2026 Kaydan Wealth Management Inc.1,177$296K0.1%-6.7%0.000%
8/22/2026 Advisory Solutions Group LLC3,333$839K0.3%N/A0.000%
8/22/2026 Rose Capital Advisors LLC1,056$266K0.1%N/A0.000%
8/22/2026 NI Acquisitions Company LLC1,052$265K0.1%N/A0.000%
8/22/2026 NBH Bank7,182$1.81M0.8%N/A0.000%
8/22/2026 AlphaGrep UK Ltd860$216K0.1%N/A0.000%
8/22/2026 Gainline Financial Partners LLC1,184$298K0.3%N/A0.000%
8/22/2026 Shah Wealth Advisors LLC2,094$527K0.1%N/A0.000%
8/22/2026 MW Advisory LLC4,154$1.05M0.4%N/A0.000%
8/22/2026 Tenet Wealth Partners LLC2,019$519K0.4%N/A0.000%
8/22/2026 Maloon Powers Pitre Higgins & Dennehy LLC3,893$980K0.3%N/A0.000%
8/22/2026 Markowski Investments10,631$2.68M0.6%N/A0.001%
8/22/2026 SeedSafe Financial LLC1,256$316K0.2%N/A0.000%
8/22/2026 Old Mission Investment Co LLC7,291$1.84M0.4%N/A0.000%
8/22/2026 OceanIQ Capital LLC8,588$2.15M1.3%N/A0.000%
8/22/2026 Highland Investment Advisors LLC1,921$483K0.2%N/A0.000%
8/22/2026 Outlook Capital Management LLC293$74K0.0%N/A0.000%
8/22/2026 Strive Financial Group LLC2,182$549K0.2%+192.1%0.000%
8/22/2026 Invested Advisors2,956$744K0.7%-6.1%0.000%
8/22/2026 Munich Reinsurance Co Stock Corp in Munich157,348$39.60M0.9%+3.8%0.009%
8/22/2026 Blalock Williams LLC1,113$280K0.2%-4.9%0.000%
8/22/2026 Sensenig Capital Advisors Inc1,356$341K0.3%-6.9%0.000%
8/22/2026 Elevation Wealth Management LLC893$225K0.2%N/A0.000%
8/22/2026 BAM Wealth Management LLC1,349$339K0.2%+36.7%0.000%
8/22/2026 Cornerstone Advisors Asset Management LLC2,979$750K0.1%-11.1%0.000%
8/22/2026 Shum Financial Group Inc.5,145$1.30M0.7%-1.9%0.000%
8/22/2026 Investor s Fiduciary Advisor Network LLC3,431$863K0.3%-5.7%0.000%
8/22/2026 Copley Financial Group Inc.1,092$275K0.1%-38.1%0.000%
8/22/2026 Tudor Financial Inc.4,146$1.04M0.5%-38.5%0.000%
8/22/2026 LifePlan Investment Advisors Inc.3,021$760K0.3%+2.4%0.000%
8/22/2026 NWF Advisory Services Inc.12,825$3.23M0.3%+1.3%0.001%
8/22/2026 Rogco LP6,390$1.61M0.5%-2.4%0.000%
8/22/2026 Syon Capital LLC27,228$6.85M0.3%+5.4%0.002%
8/22/2026 TD Waterhouse Canada Inc.366,299$91.97M0.2%-27.2%0.021%
8/22/2026 Premier Path Wealth Partners LLC13,169$3.31M0.4%+5.2%0.001%
8/22/2026 Barlow Wealth Partners LLC4,334$1.10M0.1%+19.0%0.000%
8/22/2026 United Community Bank9,661$2.43M0.8%+3.5%0.001%
8/22/2026 Werlinich Asset Management LLC18,535$4.66M1.8%+0.3%0.001%
8/22/2026 Prosperitas Financial LLC22,314$5.62M1.8%+13.5%0.001%
8/22/2026 NEOS Investment Management LLC286,410$72.07M0.3%+10.4%0.016%
8/22/2026 Burford Brothers Inc.10,770$2.71M1.0%+0.5%0.001%
8/22/2026 Allen Mooney & Barnes Investment Advisors LLC81,986$20.63M3.1%-6.9%0.005%
8/21/2026 AXQ Capital LP2,437$613K0.1%N/A0.000%
MILLIONAIRE MASTERCLASS INVITE: Altucher (Ad)

James Altucher says Elon Musk is preparing an unprecedented project set to surface on September 25. Altucher is hosting a free masterclass revealing what he says is locked inside a sealed briefcase detailing Musk's plans. Attendees who join early can also access a $1,000 bonus offer included with the presentation.tc pixel

Watch James Altucher's free masterclass before September 25
8/21/2026 Alley Investment Management Company LLC107,568$27.07M3.2%-4.2%0.006%
8/21/2026 Mason & Associates Inc3,310$833K0.1%-3.2%0.000%
8/21/2026 Montz Harcus Wealth Management LLC2,937$739K0.2%-2.6%0.000%
8/21/2026 High Net Worth Advisory Group LLC45,390$11.42M2.4%-0.1%0.003%
8/21/2026 KFG Wealth Management LLC5,670$1.43M0.2%+22.8%0.000%
8/21/2026 Carter Financial Group INC.1,596$402K0.2%+19.0%0.000%
8/21/2026 Athena Investment Management9,063$2.28M1.4%-20.1%0.001%
8/21/2026 Beacon Capital Management LLC2,193$552K0.1%-10.8%0.000%
8/21/2026 Paragon Private Wealth Management LLC10,654$2.68M0.7%+0.5%0.001%
8/21/2026 Continuum Advisory LLC13,684$3.44M0.3%-1.2%0.001%


ABBV Institutional Ownership - Frequently Asked Questions

During the previous two years, 4,524 institutional investors and hedge funds held shares of AbbVie. The most heavily invested institutionals were California State Teachers Retirement System ($170.97B), Vanguard Group Inc. ($41.31B), BlackRock Inc. ($37.62B), State Street Corp ($18.49B), Geode Capital Management LLC ($10.18B), Morgan Stanley ($9.15B), and Norges Bank ($5.87B).Learn more on AbbVie's institutional investors.

70.23% of AbbVie's stock is owned by institutional investors. Learn more on ABBV's institutional investor holdings.

Of the 3,923 institutional investors that purchased AbbVie's stock in the last 24 months, the following investors and hedge funds have bought the highest volume of shares: California State Teachers Retirement System ($676.77M), Norges Bank ($73.87M), Corient Private Wealth LP ($36.93M), Wellington Management Group LLP ($13.71M), Legal & General Group Plc ($12.17M), GAMMA Investing LLC ($10.23M), and Raymond James Financial Inc. ($9.68M).

Institutional investors have bought a total of 882,534,741 shares in the last 24 months. This purchase volume represents approximately $219.03B in transactions.

Of the 2,150 institutional investors that sold AbbVie's stock in the last 24 months, the following investors and hedge funds have sold the highest volume of shares: Laurel Wealth Advisors LLC ($5.68M), Cardano Risk Management B.V. ($4.91M), Bank of America Corp DE ($4.59M), Massachusetts Financial Services Co. MA ($3.28M), Assenagon Asset Management S.A. ($2.98M), Capital International Investors ($2.95M), and Dimensional Fund Advisors LP ($2.09M).

Institutional investors have sold a total of 68,851,770 shares in the last 24 months. This volume of shares sold represents approximately $15.94B in transactions.



Institutional ownership data for NYSE:ABBV is compiled from quarterly 13F filings submitted to the U.S. Securities and Exchange Commission (SEC), with the most recent received on 9/3/2026. New 13F filings are added each quarter as they're published.
From Our Partners